Time;durP1;ratioP1;P1;durP2;ratioP2;P2;SDS_P1;SDS_P2;PMS_P1;PMS_P2;Temp;Humidity;BMP_temperature;BMP_pressure;BME280_temperature;BME280_humidity;BME280_pressure;Samples;Min_cycle;Max_cycle;Signal;HPM_P1;HPM_P2
2024/02/10 00:01:36;;;;;;;93.90;24.73;;;;;;;1.55;100.00;98467.06;5016701;28;20068;-78
2024/02/10 00:04:06;;;;;;;79.43;25.13;;;;;;;1.76;100.00;98485.03;5017071;28;20046;-79
2024/02/10 00:06:33;;;;;;;79.47;23.20;;;;;;;1.77;100.00;98470.06;5012839;28;20592;-79
2024/02/10 00:08:59;;;;;;;129.63;25.05;;;;;;;1.78;100.00;98479.56;5011600;28;20091;-80
2024/02/10 00:11:25;;;;;;;113.43;27.42;;;;;;;1.68;100.00;98477.91;5003482;28;20485;-78
2024/02/10 00:13:51;;;;;;;88.05;24.80;;;;;;;1.80;100.00;98485.50;5011306;28;20023;-79
2024/02/10 00:16:16;;;;;;;97.40;28.33;;;;;;;1.63;100.00;98482.84;5023322;28;20041;-79
2024/02/10 00:18:41;;;;;;;131.13;31.42;;;;;;;1.40;100.00;98473.91;4998241;28;20094;-79
2024/02/10 00:21:07;;;;;;;129.77;28.48;;;;;;;1.71;100.00;98491.72;5028658;28;20068;-79
2024/02/10 00:23:32;;;;;;;109.63;26.08;;;;;;;1.58;100.00;98485.13;5032784;28;20360;-79
2024/02/10 00:25:58;;;;;;;97.50;27.08;;;;;;;1.79;100.00;98495.22;5033628;28;20029;-80
2024/02/10 00:28:26;;;;;;;106.15;29.92;;;;;;;1.97;100.00;98502.97;5033726;28;20420;-79
2024/02/10 00:30:54;;;;;;;139.43;28.60;;;;;;;1.76;100.00;98500.00;4993160;28;20049;-78
2024/02/10 00:33:20;;;;;;;157.07;29.27;;;;;;;1.94;100.00;98492.75;5033915;28;20033;-79
2024/02/10 00:35:45;;;;;;;88.22;24.20;;;;;;;1.96;100.00;98495.25;5013236;28;20036;-79
2024/02/10 00:38:15;;;;;;;110.75;27.20;;;;;;;1.94;100.00;98491.94;5013704;28;20049;-79
2024/02/10 00:40:41;;;;;;;104.47;27.33;;;;;;;2.01;100.00;98492.94;5034344;28;20037;-79
2024/02/10 00:43:07;;;;;;;143.88;29.85;;;;;;;1.86;100.00;98490.13;5000032;28;20377;-78
2024/02/10 00:45:33;;;;;;;100.25;25.30;;;;;;;1.94;100.00;98487.50;5013540;28;20510;-79
2024/02/10 00:48:02;;;;;;;121.88;27.98;;;;;;;1.96;100.00;98498.69;5010890;28;20053;-79
2024/02/10 00:50:27;;;;;;;124.47;29.30;;;;;;;1.93;100.00;98503.47;4987498;28;20045;-78
2024/02/10 00:52:53;;;;;;;111.13;26.50;;;;;;;1.95;100.00;98506.75;5002990;28;20037;-78
2024/02/10 00:55:21;;;;;;;177.00;32.37;;;;;;;1.86;100.00;98516.44;5001435;28;20111;-79
2024/02/10 00:57:47;;;;;;;103.85;25.95;;;;;;;2.04;100.00;98518.97;5002835;28;21191;-79
2024/02/10 01:00:16;;;;;;;111.22;27.45;;;;;;;2.00;100.00;98523.69;5011805;28;20481;-79
2024/02/10 01:02:45;;;;;;;123.32;29.33;;;;;;;1.94;100.00;98513.00;5011030;28;20033;-78
2024/02/10 01:05:11;;;;;;;135.98;30.77;;;;;;;1.77;100.00;98512.16;4992859;28;20018;-79
2024/02/10 01:07:36;;;;;;;138.50;31.85;;;;;;;1.87;100.00;98508.41;4994910;28;20704;-79
2024/02/10 01:10:02;;;;;;;147.88;30.77;;;;;;;1.73;100.00;98509.00;4994197;28;20052;-79
2024/02/10 01:12:28;;;;;;;160.98;33.05;;;;;;;1.92;100.00;98530.75;5011538;28;20041;-79
2024/02/10 01:14:55;;;;;;;119.50;29.95;;;;;;;1.99;100.00;98526.50;4995271;28;20484;-79
2024/02/10 01:17:20;;;;;;;127.05;32.38;;;;;;;1.93;100.00;98517.44;5010990;28;20044;-79
2024/02/10 01:19:49;;;;;;;119.38;29.25;;;;;;;1.80;100.00;98511.81;5010999;28;20038;-79
2024/02/10 01:22:17;;;;;;;148.73;31.98;;;;;;;1.86;100.00;98522.53;4993722;28;20037;-79
2024/02/10 01:24:46;;;;;;;189.90;37.58;;;;;;;1.66;100.00;98511.47;5009301;28;20128;-80
2024/02/10 01:27:14;;;;;;;145.20;33.67;;;;;;;1.90;100.00;98523.03;5008859;28;20938;-78
2024/02/10 01:29:40;;;;;;;151.23;31.92;;;;;;;1.97;100.00;98523.22;5026329;28;20037;-79
2024/02/10 01:32:05;;;;;;;138.00;31.52;;;;;;;2.04;100.00;98509.25;5032550;28;20033;-79
2024/02/10 01:34:32;;;;;;;151.75;35.47;;;;;;;2.10;100.00;98513.03;5017953;28;20057;-79
2024/02/10 01:36:58;;;;;;;151.75;32.05;;;;;;;1.95;100.00;98506.75;4999048;28;20044;-79
2024/02/10 01:39:24;;;;;;;144.82;31.20;;;;;;;1.99;100.00;98495.75;4992403;28;20026;-78
2024/02/10 01:41:52;;;;;;;162.95;36.05;;;;;;;1.82;100.00;98504.59;5032156;28;20020;-79
2024/02/10 01:44:18;;;;;;;135.88;32.70;;;;;;;1.82;100.00;98500.13;5032437;28;20143;-79
2024/02/10 01:46:43;;;;;;;;;;;;;;;2.01;100.00;98504.28;5033937;28;20438;-79
2024/02/10 01:49:09;;;;;;;112.28;29.95;;;;;;;2.05;100.00;98510.06;5032612;28;19909;-78
2024/02/10 01:51:35;;;;;;;;;;;;;;;1.95;100.00;98512.03;5016390;28;20036;-78
2024/02/10 01:54:03;;;;;;;122.22;33.00;;;;;;;1.83;100.00;98507.06;5017583;28;19913;-79
2024/02/10 01:56:29;;;;;;;136.30;31.25;;;;;;;1.82;100.00;98510.66;5031948;28;20029;-78
2024/02/10 01:58:56;;;;;;;170.23;33.65;;;;;;;1.89;100.00;98510.84;5016504;28;20032;-79
2024/02/10 02:01:22;;;;;;;133.02;31.20;;;;;;;2.04;100.00;98511.06;5014940;28;20140;-78
2024/02/10 02:03:48;;;;;;;133.98;32.63;;;;;;;1.91;100.00;98514.16;5031883;28;20131;-79
2024/02/10 02:06:17;;;;;;;120.72;30.30;;;;;;;2.11;100.00;98515.50;5014597;28;20044;-79
2024/02/10 02:08:46;;;;;;;127.28;30.63;;;;;;;2.00;100.00;98507.91;5013264;28;20064;-78
2024/02/10 02:11:12;;;;;;;117.95;29.17;;;;;;;2.11;100.00;98504.97;5031015;28;20451;-79
2024/02/10 02:13:38;;;;;;;138.70;32.75;;;;;;;2.01;100.00;98491.13;5015820;28;20052;-79
2024/02/10 02:16:04;;;;;;;124.70;32.22;;;;;;;2.08;100.00;98505.31;4999368;28;20068;-78
2024/02/10 02:18:29;;;;;;;130.52;33.05;;;;;;;2.05;100.00;98495.09;5032412;28;20489;-78
2024/02/10 02:20:55;;;;;;;119.55;31.30;;;;;;;2.06;100.00;98496.75;5032160;28;20033;-78
2024/02/10 02:23:20;;;;;;;153.32;33.75;;;;;;;2.06;100.00;98502.00;4999378;28;20045;-78
2024/02/10 02:25:49;;;;;;;135.93;33.03;;;;;;;2.05;100.00;98505.59;4992938;28;20114;-79
2024/02/10 02:28:18;;;;;;;119.57;29.83;;;;;;;2.04;100.00;98498.72;4995395;28;20026;-79
2024/02/10 02:30:44;;;;;;;137.35;33.13;;;;;;;2.09;100.00;98501.69;5016966;28;20030;-79
2024/02/10 02:33:10;;;;;;;;;;;;;;;2.15;100.00;98510.72;5015761;28;20054;-79
2024/02/10 02:35:45;;;;;;;120.57;31.50;;;;;;;2.29;100.00;98517.16;5032211;28;19920;-79
2024/02/10 02:38:14;;;;;;;138.20;32.97;;;;;;;2.20;100.00;98513.72;5012892;28;20033;-78
2024/02/10 02:40:40;;;;;;;104.93;28.33;;;;;;;2.23;100.00;98518.63;4993491;28;20029;-79
2024/02/10 02:43:08;;;;;;;110.47;30.17;;;;;;;2.33;100.00;98515.84;5028024;28;20029;-79
2024/02/10 02:45:34;;;;;;;146.13;32.90;;;;;;;2.30;100.00;98500.38;4999180;28;20104;-80
2024/02/10 02:48:03;;;;;;;;;;;;;;;1.94;100.00;98492.75;5013963;28;20069;-79
2024/02/10 02:50:30;;;;;;;112.28;29.60;;;;;;;2.03;100.00;98501.50;5029269;28;19909;-78
2024/02/10 02:53:02;;;;;;;120.53;32.13;;;;;;;2.09;100.00;98493.78;5012333;28;20029;-78
2024/02/10 02:55:28;;;;;;;134.98;33.55;;;;;;;2.04;100.00;98495.25;5006915;28;20033;-79
2024/02/10 02:57:53;;;;;;;;;;;;;;;2.04;100.00;98488.19;5028229;28;20026;-79
2024/02/10 03:00:19;;;;;;;132.02;30.67;;;;;;;2.01;100.00;98495.56;5044949;28;20428;-78
2024/02/10 03:02:46;;;;;;;118.28;30.10;;;;;;;2.04;100.00;98498.72;5029573;28;20447;-79
2024/02/10 03:05:12;;;;;;;99.78;29.08;;;;;;;2.21;100.00;98506.63;5012109;28;20052;-79
2024/02/10 03:07:45;;;;;;;111.07;29.27;;;;;;;2.10;100.00;98502.50;5029053;28;20033;-78
2024/02/10 03:10:15;;;;;;;92.85;29.75;;;;;;;2.17;100.00;98507.94;5029021;28;20053;-79
2024/02/10 03:12:46;;;;;;;105.38;30.00;;;;;;;2.24;100.00;98509.75;5011547;28;20055;-79
2024/02/10 03:15:12;;;;;;;97.93;28.73;;;;;;;2.14;100.00;98497.75;5021192;28;21026;-79
2024/02/10 03:17:37;;;;;;;120.25;32.95;;;;;;;2.11;100.00;98493.63;5031237;28;20021;-79
2024/02/10 03:20:03;;;;;;;127.13;31.90;;;;;;;2.19;100.00;98492.78;5026755;28;20064;-79
2024/02/10 03:22:29;;;;;;;116.97;31.20;;;;;;;2.25;100.00;98500.06;5019909;28;20025;-79
2024/02/10 03:24:54;;;;;;;97.57;29.25;;;;;;;2.08;100.00;98484.25;4994591;28;20472;-79
2024/02/10 03:27:21;;;;;;;122.88;34.05;;;;;;;2.08;100.00;98483.41;5012684;28;20075;-78
2024/02/10 03:29:50;;;;;;;110.57;30.85;;;;;;;2.10;100.00;98495.41;5005695;28;20104;-79
2024/02/10 03:32:16;;;;;;;108.60;29.73;;;;;;;2.04;100.00;98492.63;5003311;28;20037;-79
2024/02/10 03:34:42;;;;;;;98.32;31.35;;;;;;;2.08;100.00;98489.50;5028930;28;20022;-79
2024/02/10 03:37:09;;;;;;;106.50;33.45;;;;;;;2.15;100.00;98497.56;4994413;28;20408;-79
2024/02/10 03:39:35;;;;;;;104.72;29.80;;;;;;;2.26;100.00;98512.22;5027648;28;20030;-79
2024/02/10 03:42:03;;;;;;;95.38;30.80;;;;;;;2.15;100.00;98494.91;4995657;28;20018;-79
2024/02/10 03:44:28;;;;;;;106.22;30.85;;;;;;;2.29;100.00;98501.34;4998745;28;20037;-80
2024/02/10 03:46:54;;;;;;;90.22;29.13;;;;;;;2.20;100.00;98489.16;4994999;28;20029;-80
2024/02/10 03:49:20;;;;;;;126.32;31.50;;;;;;;2.26;100.00;98491.16;5009645;28;20118;-80
2024/02/10 03:51:45;;;;;;;97.53;29.67;;;;;;;2.28;100.00;98502.34;4995338;28;20156;-80
2024/02/10 03:54:12;;;;;;;104.88;29.38;;;;;;;2.13;100.00;98485.53;5008893;28;20397;-79
2024/02/10 03:56:41;;;;;;;97.88;28.08;;;;;;;2.14;100.00;98490.66;5009936;28;20037;-79
2024/02/10 03:59:10;;;;;;;84.13;27.40;;;;;;;2.25;100.00;98494.78;5026018;28;20036;-80
2024/02/10 04:01:35;;;;;;;110.47;28.58;;;;;;;2.28;100.00;98497.91;5029862;28;20048;-79
2024/02/10 04:04:00;;;;;;;92.97;31.73;;;;;;;2.12;100.00;98492.63;4992350;28;20560;-79
2024/02/10 04:06:26;;;;;;;112.05;28.58;;;;;;;2.36;100.00;98512.88;5014126;28;20038;-80
2024/02/10 04:08:52;;;;;;;93.63;30.88;;;;;;;2.41;100.00;98489.53;4995248;28;20029;-80
2024/02/10 04:11:18;;;;;;;96.40;29.00;;;;;;;2.37;100.00;98488.19;5029095;28;20440;-80
2024/02/10 04:13:43;;;;;;;100.55;28.00;;;;;;;2.30;100.00;98479.31;5011526;28;20034;-80
2024/02/10 04:16:10;;;;;;;94.50;29.58;;;;;;;2.37;100.00;98485.56;5010308;28;20034;-80
2024/02/10 04:18:37;;;;;;;85.80;30.38;;;;;;;2.57;100.00;98493.13;4987899;28;20396;-79
2024/02/10 04:21:04;;;;;;;85.38;24.77;;;;;;;2.49;100.00;98475.50;5021721;28;20472;-80
2024/02/10 04:23:32;;;;;;;77.78;25.70;;;;;;;2.70;100.00;98496.06;4986269;28;20033;-80
2024/02/10 04:25:58;;;;;;;99.10;26.40;;;;;;;2.27;100.00;98482.25;5023111;28;20083;-80
2024/02/10 04:28:24;;;;;;;120.07;28.48;;;;;;;2.40;100.00;98497.56;5023541;28;20121;-80
2024/02/10 04:30:52;;;;;;;94.68;25.92;;;;;;;2.51;100.00;98503.31;5008230;28;20065;-79
2024/02/10 04:33:21;;;;;;;91.30;27.35;;;;;;;2.32;100.00;98506.31;5021760;28;20021;-80
2024/02/10 04:35:47;;;;;;;110.68;28.42;;;;;;;2.52;100.00;98514.69;5011239;28;20140;-80
2024/02/10 04:38:13;;;;;;;168.90;35.58;;;;;;;2.46;100.00;98513.53;5013705;28;20108;-80
2024/02/10 04:40:39;;;;;;;109.78;31.80;;;;;;;2.47;100.00;98515.19;5005515;28;20115;-79
2024/02/10 04:43:05;;;;;;;119.18;30.33;;;;;;;2.42;100.00;98516.66;5018510;28;20021;-79
2024/02/10 04:45:32;;;;;;;174.43;34.20;;;;;;;2.46;100.00;98508.28;5023958;28;20281;-79
2024/02/10 04:47:58;;;;;;;106.05;32.03;;;;;;;2.63;100.00;98513.53;5012939;28;20073;-80
2024/02/10 04:50:24;;;;;;;128.63;33.15;;;;;;;2.30;100.00;98508.28;5009770;28;20029;-79
2024/02/10 04:52:50;;;;;;;116.60;31.15;;;;;;;2.52;100.00;98507.59;4990285;28;20029;-80
2024/02/10 04:55:18;;;;;;;138.98;32.53;;;;;;;2.45;100.00;98511.88;4994033;28;20049;-80
2024/02/10 04:58:25;;;;;;;122.60;28.90;;;;;;;2.40;100.00;98511.56;4991698;23;20049;-80
2024/02/10 05:12:21;;;;;;;203.25;34.67;;;;;;;2.48;100.00;98527.38;4961073;28;20089;-80
2024/02/10 05:14:46;;;;;;;138.13;30.20;;;;;;;2.52;100.00;98523.41;4970732;28;20049;-81
2024/02/10 05:17:19;;;;;;;279.23;40.67;;;;;;;2.38;100.00;98510.09;4979134;28;20030;-80
2024/02/10 05:20:27;;;;;;;233.27;38.33;;;;;;;2.54;100.00;98518.78;4997839;28;20617;-81
2024/02/10 05:22:59;;;;;;;214.65;40.30;;;;;;;2.31;100.00;98516.00;4952592;28;20448;-80
2024/02/10 05:25:27;;;;;;;247.15;39.03;;;;;;;2.32;100.00;98522.91;4971478;28;20045;-78
2024/02/10 05:27:54;;;;;;;243.48;42.28;;;;;;;2.19;100.00;98509.41;4974373;28;20032;-80
2024/02/10 05:30:24;;;;;;;212.55;37.88;;;;;;;2.16;100.00;98515.00;4971700;28;20435;-80
2024/02/10 05:32:59;;;;;;;244.38;42.25;;;;;;;2.17;100.00;98518.47;5003725;28;20116;-81
2024/02/10 05:35:26;;;;;;;224.90;41.83;;;;;;;2.47;100.00;98541.50;5005685;28;20126;-80
2024/02/10 05:37:58;;;;;;;234.32;42.00;;;;;;;2.21;100.00;98525.06;4984983;28;20708;-81
2024/02/10 05:40:26;;;;;;;253.35;41.05;;;;;;;2.35;100.00;98529.66;4983996;28;20042;-80
2024/02/10 05:42:58;;;;;;;221.27;40.22;;;;;;;2.32;100.00;98543.16;4986346;28;20148;-80
2024/02/10 05:45:28;;;;;;;241.65;41.22;;;;;;;2.43;100.00;98545.47;4983584;28;20052;-81
2024/02/10 05:47:53;;;;;;;199.02;36.67;;;;;;;2.42;100.00;98535.94;5008986;28;20045;-81
2024/02/10 05:50:24;;;;;;;206.32;39.05;;;;;;;2.50;100.00;98543.81;5005720;28;20037;-80
2024/02/10 05:52:51;;;;;;;178.25;35.88;;;;;;;2.56;100.00;98537.06;5007126;28;20034;-80
2024/02/10 05:55:21;;;;;;;237.63;39.60;;;;;;;2.38;100.00;98520.63;5001633;28;20137;-80
2024/02/10 05:57:49;;;;;;;239.13;38.58;;;;;;;2.47;100.00;98523.06;5007704;28;20065;-79
2024/02/10 06:00:16;;;;;;;195.20;33.30;;;;;;;2.47;100.00;98535.44;4999116;28;20018;-80
2024/02/10 06:02:42;;;;;;;258.10;40.38;;;;;;;2.43;100.00;98531.47;4975017;28;20489;-80
2024/02/10 06:05:09;;;;;;;218.30;35.75;;;;;;;2.57;100.00;98549.25;5000639;28;20021;-80
2024/02/10 06:07:36;;;;;;;196.77;35.65;;;;;;;2.54;100.00;98529.34;5005045;28;20088;-81
2024/02/10 06:10:15;;;;;;;275.65;40.20;;;;;;;2.50;100.00;98529.81;4985293;28;20036;-80
2024/02/10 06:12:49;;;;;;;216.07;37.30;;;;;;;2.71;100.00;98545.13;4979426;28;20508;-80
2024/02/10 06:15:17;;;;;;;209.30;37.00;;;;;;;2.48;100.00;98537.06;4991636;28;20045;-80
2024/02/10 06:17:45;;;;;;;159.23;32.85;;;;;;;2.72;100.00;98539.72;4987131;28;20384;-80
2024/02/10 06:20:14;;;;;;;175.13;36.10;;;;;;;2.70;100.00;98539.03;5011754;28;20045;-80
2024/02/10 06:22:47;;;;;;;234.50;39.95;;;;;;;2.82;100.00;98541.34;5012727;28;20099;-80
2024/02/10 06:25:13;;;;;;;190.13;36.47;;;;;;;2.79;100.00;98539.88;4986386;28;20030;-81
2024/02/10 06:27:41;;;;;;;;;;;;;;;2.49;100.00;98534.28;4993415;28;20026;-81
2024/02/10 06:30:08;;;;;;;185.45;36.78;;;;;;;2.75;100.00;98549.91;5002462;28;19921;-80
2024/02/10 06:32:36;;;;;;;228.85;37.92;;;;;;;2.66;100.00;98544.81;4982638;28;20505;-80
2024/02/10 06:35:02;;;;;;;124.93;31.80;;;;;;;2.69;100.00;98557.66;4978153;28;20026;-80
2024/02/10 06:37:32;;;;;;;250.35;41.63;;;;;;;2.62;100.00;98565.41;4994926;28;20252;-79
2024/02/10 06:39:58;;;;;;;167.93;34.83;;;;;;;2.77;100.00;98572.66;4992592;28;20033;-80
2024/02/10 06:42:25;;;;;;;249.68;38.08;;;;;;;2.79;100.00;98576.75;4993750;28;20033;-80
2024/02/10 06:44:51;;;;;;;184.10;36.72;;;;;;;2.68;100.00;98583.19;5013210;28;20068;-80
2024/02/10 06:47:17;;;;;;;159.60;32.35;;;;;;;2.61;100.00;98584.81;4996508;28;20477;-79
2024/02/10 06:49:42;;;;;;;194.38;38.85;;;;;;;2.71;100.00;98585.47;4993384;28;20564;-79
2024/02/10 06:52:08;;;;;;;163.45;32.97;;;;;;;2.86;100.00;98590.09;4993788;28;20030;-80
2024/02/10 06:54:34;;;;;;;230.07;42.50;;;;;;;2.82;100.00;98586.97;4979444;28;20049;-80
2024/02/10 06:57:01;;;;;;;169.43;35.00;;;;;;;2.79;100.00;98592.56;4989373;28;20071;-80
2024/02/10 06:59:27;;;;;;;179.70;35.13;;;;;;;2.91;100.00;98593.88;4968756;28;20088;-80
2024/02/10 07:01:54;;;;;;;157.43;35.97;;;;;;;3.01;100.00;98590.25;4974984;28;20540;-79
2024/02/10 07:04:23;;;;;;;201.70;35.70;;;;;;;2.96;100.00;98583.66;4998845;28;20081;-80
2024/02/10 07:06:57;;;;;;;205.05;38.58;;;;;;;2.98;100.00;98585.31;4990676;28;20026;-81
2024/02/10 07:09:23;;;;;;;232.80;39.28;;;;;;;3.06;100.00;98593.19;4982665;28;20084;-79
2024/02/10 07:11:49;;;;;;;171.57;35.92;;;;;;;3.08;100.00;98583.31;4980866;28;20025;-79
2024/02/10 07:14:18;;;;;;;134.55;32.70;;;;;;;3.16;100.00;98588.56;4982803;28;20180;-80
2024/02/10 07:16:44;;;;;;;187.43;37.72;;;;;;;3.16;100.00;98583.28;4981667;28;20108;-80
2024/02/10 07:19:11;;;;;;;251.85;38.40;;;;;;;3.07;100.00;98579.03;4983423;28;20037;-79
2024/02/10 07:21:37;;;;;;;163.05;34.15;;;;;;;3.13;100.00;98594.19;5001561;28;20104;-79
2024/02/10 07:24:05;;;;;;;;;;;;;;;3.08;100.00;98586.75;5007056;28;20030;-79
2024/02/10 07:26:34;;;;;;;175.85;34.28;;;;;;;3.17;100.00;98588.41;4991159;28;19945;-79
2024/02/10 07:29:01;;;;;;;125.15;32.00;;;;;;;3.26;100.00;98594.50;4975554;28;20030;-80
2024/02/10 07:31:29;;;;;;;;;;;;;;;3.09;100.00;98587.59;4966574;28;20034;-80
2024/02/10 07:34:01;;;;;;;150.68;29.05;;;;;;;3.22;100.00;98595.00;4977587;28;19909;-79
2024/02/10 07:36:35;;;;;;;203.05;31.95;;;;;;;3.25;100.00;98597.28;4977673;28;20073;-80
2024/02/10 07:39:09;;;;;;;217.60;39.28;;;;;;;3.21;100.00;98607.34;4982369;28;20042;-79
2024/02/10 07:41:38;;;;;;;170.32;36.35;;;;;;;3.21;100.00;98606.50;4973528;28;20556;-81
2024/02/10 07:44:07;;;;;;;238.60;39.45;;;;;;;2.84;100.00;98598.16;4977167;28;20026;-80
2024/02/10 07:46:34;;;;;;;223.95;39.13;;;;;;;2.72;100.00;98600.31;4985233;28;20038;-79
2024/02/10 07:49:06;;;;;;;187.93;37.67;;;;;;;3.04;100.00;98621.53;4971060;28;20098;-79
2024/02/10 07:51:35;;;;;;;203.73;40.33;;;;;;;3.04;100.00;98624.19;4967935;28;20073;-79
2024/02/10 07:54:01;;;;;;;188.70;37.38;;;;;;;3.05;100.00;98631.09;4975271;28;20117;-81
2024/02/10 07:56:29;;;;;;;183.02;34.42;;;;;;;2.92;100.00;98629.78;4976414;28;20041;-81
2024/02/10 07:59:02;;;;;;;193.65;36.20;;;;;;;3.09;100.00;98635.03;5000913;28;20065;-80
2024/02/10 08:01:30;;;;;;;189.35;39.38;;;;;;;3.05;100.00;98633.75;4996627;28;20474;-80
2024/02/10 08:03:56;;;;;;;182.65;36.47;;;;;;;3.19;100.00;98646.25;4970528;28;20046;-80
2024/02/10 08:06:26;;;;;;;192.70;37.63;;;;;;;3.18;100.00;98631.41;4977417;28;20112;-81
2024/02/10 08:08:57;;;;;;;139.68;34.25;;;;;;;3.29;100.00;98635.53;4976363;28;20046;-80
2024/02/10 08:11:25;;;;;;;111.97;30.73;;;;;;;3.24;100.00;98627.28;4987725;28;20136;-80
2024/02/10 08:13:51;;;;;;;167.07;37.13;;;;;;;3.19;100.00;98635.72;4977442;28;20026;-79
2024/02/10 08:16:18;;;;;;;;;;;;;;;3.27;100.00;98645.41;4991611;28;20081;-80
2024/02/10 08:18:43;;;;;;;128.65;30.88;;;;;;;3.22;100.00;98645.09;4975290;28;19918;-81
2024/02/10 08:21:09;;;;;;;133.15;32.25;;;;;;;3.36;100.00;98658.41;4983166;28;20472;-79
2024/02/10 08:23:38;;;;;;;156.93;35.00;;;;;;;3.36;100.00;98666.34;4991225;28;20034;-81
2024/02/10 08:26:06;;;;;;;162.68;35.15;;;;;;;3.24;100.00;98659.75;4991753;28;20053;-82
2024/02/10 08:28:31;;;;;;;137.90;30.58;;;;;;;3.30;100.00;98663.53;4986031;28;20034;-81
2024/02/10 08:30:59;;;;;;;130.85;29.60;;;;;;;3.20;100.00;98658.44;4995277;28;20034;-81
2024/02/10 08:33:26;;;;;;;175.00;35.20;;;;;;;3.32;100.00;98662.38;4995074;28;20038;-81
2024/02/10 08:35:52;;;;;;;178.98;33.55;;;;;;;2.97;100.00;98663.53;4995644;28;20036;-81
2024/02/10 08:38:17;;;;;;;158.30;33.33;;;;;;;3.08;100.00;98675.59;4976465;28;20043;-82
2024/02/10 08:40:44;;;;;;;122.93;29.60;;;;;;;3.19;100.00;98682.34;4991623;28;20061;-81
2024/02/10 08:43:09;;;;;;;203.30;36.67;;;;;;;2.93;100.00;98668.34;4975953;28;20031;-80
2024/02/10 08:45:34;;;;;;;133.02;29.17;;;;;;;3.24;100.00;98685.31;4986679;28;20499;-81
2024/02/10 08:48:00;;;;;;;115.93;30.43;;;;;;;3.36;100.00;98694.53;4967927;28;20048;-82
2024/02/10 08:50:26;;;;;;;124.40;28.45;;;;;;;3.34;100.00;98692.03;4983407;28;20281;-81
2024/02/10 08:52:56;;;;;;;68.97;20.55;;;;;;;3.70;100.00;98702.25;4981428;28;20477;-80
2024/02/10 08:55:26;;;;;;;89.47;26.20;;;;;;;4.24;100.00;98720.06;4975562;28;20037;-81
2024/02/10 08:58:04;;;;;;;114.43;27.27;;;;;;;3.94;100.00;98703.16;4974647;28;20034;-81
2024/02/10 09:00:29;;;;;;;111.90;26.88;;;;;;;3.66;100.00;98695.66;5000021;28;20038;-82
2024/02/10 09:02:55;;;;;;;127.72;27.48;;;;;;;3.30;100.00;98684.63;4976008;28;20107;-80
2024/02/10 09:05:24;;;;;;;117.28;27.35;;;;;;;3.40;100.00;98690.56;4971735;28;20038;-80
2024/02/10 09:07:49;;;;;;;145.68;28.98;;;;;;;3.31;100.00;98683.66;4977142;28;20474;-81
2024/02/10 09:10:14;;;;;;;123.40;29.02;;;;;;;3.58;100.00;98703.56;4977263;28;20042;-82
2024/02/10 09:12:41;;;;;;;90.57;26.20;;;;;;;3.50;100.00;98693.84;4989870;28;20133;-81
2024/02/10 09:15:07;;;;;;;104.70;26.10;;;;;;;3.07;100.00;98681.88;4971679;28;20041;-82
2024/02/10 09:17:32;;;;;;;122.95;28.52;;;;;;;3.21;100.00;98694.38;4976894;28;20030;-81
2024/02/10 09:20:55;;;;;;;125.43;31.27;;;;;;;3.21;100.00;98690.91;4995133;28;20027;-82
2024/02/10 09:23:47;;;;;;;101.43;28.13;;;;;;;3.37;100.00;98699.66;4876862;29;20045;-81
2024/02/10 09:26:43;;;;;;;107.50;29.73;;;;;;;3.11;100.00;98688.44;4884895;29;20049;-83
2024/02/10 09:29:08;;;;;;;92.00;25.63;;;;;;;3.31;100.00;98710.03;4969748;28;20072;-81
2024/02/10 09:31:34;;;;;;;105.38;27.67;;;;;;;3.50;100.00;98722.06;4979120;28;20032;-82
2024/02/10 09:34:01;;;;;;;90.60;25.05;;;;;;;3.47;100.00;98722.41;4985366;28;20034;-81
2024/02/10 09:36:27;;;;;;;125.60;30.42;;;;;;;3.30;100.00;98732.97;4983429;28;20026;-81
2024/02/10 09:38:53;;;;;;;127.70;34.05;;;;;;;3.24;100.00;98733.59;4994784;28;20030;-81
2024/02/10 09:41:18;;;;;;;109.07;29.60;;;;;;;3.33;100.00;98743.16;4998732;28;20037;-81
2024/02/10 09:43:48;;;;;;;105.85;29.10;;;;;;;3.50;100.00;98738.69;4980690;28;20022;-81
2024/02/10 09:46:14;;;;;;;87.97;27.00;;;;;;;3.57;100.00;98744.16;5001729;28;20092;-82
2024/02/10 09:48:42;;;;;;;104.00;28.85;;;;;;;3.52;100.00;98741.19;4991765;28;20110;-82
2024/02/10 09:51:08;;;;;;;128.18;30.90;;;;;;;3.30;100.00;98743.50;4981953;28;20077;-81
2024/02/10 09:53:34;;;;;;;113.57;29.95;;;;;;;3.33;100.00;98740.53;4989846;28;20085;-82
2024/02/10 09:55:59;;;;;;;111.10;29.38;;;;;;;3.46;100.00;98747.13;4996453;28;20041;-81
2024/02/10 09:58:26;;;;;;;142.27;29.15;;;;;;;3.27;100.00;98745.63;5002412;28;20045;-79
2024/02/10 10:00:52;;;;;;;122.55;28.20;;;;;;;3.45;100.00;98745.47;4975843;28;20030;-79
2024/02/10 10:03:17;;;;;;;104.72;27.05;;;;;;;3.46;100.00;98755.84;5001436;28;20041;-78
2024/02/10 10:05:45;;;;;;;140.38;32.15;;;;;;;3.37;100.00;98759.47;4988582;28;20018;-81
2024/02/10 10:08:14;;;;;;;114.97;26.63;;;;;;;3.58;100.00;98761.63;4985309;28;20450;-79
2024/02/10 10:10:40;;;;;;;125.13;32.35;;;;;;;3.34;100.00;98747.44;4976536;28;20123;-78
2024/02/10 10:13:09;;;;;;;134.38;28.30;;;;;;;3.53;100.00;98756.00;4996579;28;20568;-79
2024/02/10 10:15:39;;;;;;;136.27;29.83;;;;;;;3.58;100.00;98754.53;4960276;28;20038;-78
2024/02/10 10:18:19;;;;;;;139.90;31.33;;;;;;;3.47;100.00;98756.69;4975798;28;20038;-78
2024/02/10 10:20:49;;;;;;;109.30;30.13;;;;;;;3.43;100.00;98755.38;4972584;28;20051;-79
2024/02/10 10:23:15;;;;;;;136.55;31.45;;;;;;;3.38;100.00;98750.59;4969611;28;20469;-79
2024/02/10 10:25:45;;;;;;;126.30;30.52;;;;;;;3.32;100.00;98757.31;4988878;28;20059;-81
2024/02/10 10:28:16;;;;;;;137.43;29.67;;;;;;;3.66;100.00;98772.19;4983428;28;20061;-80
2024/02/10 10:30:43;;;;;;;111.70;27.27;;;;;;;3.41;100.00;98766.06;5003687;28;20041;-81
2024/02/10 10:33:10;;;;;;;107.97;24.77;;;;;;;3.67;100.00;98773.81;4979566;28;20030;-82
2024/02/10 10:35:44;;;;;;;142.95;30.33;;;;;;;3.72;100.00;98774.16;4986450;28;21332;-79
2024/02/10 10:38:11;;;;;;;125.00;29.02;;;;;;;3.61;100.00;98765.75;5006879;28;20053;-78
2024/02/10 10:40:37;;;;;;;135.55;31.00;;;;;;;3.62;100.00;98777.94;4987396;28;20080;-79
2024/02/10 10:43:05;;;;;;;;;;;;;;;3.73;100.00;98778.44;4987349;28;20037;-83
2024/02/10 10:45:33;;;;;;;113.68;29.75;;;;;;;3.70;100.00;98785.84;5001405;28;19952;-80
2024/02/10 10:48:01;;;;;;;127.75;27.75;;;;;;;3.41;100.00;98771.34;5006320;28;20021;-80
2024/02/10 10:50:28;;;;;;;111.28;30.80;;;;;;;3.58;100.00;98778.28;5002117;28;20092;-80
2024/02/10 10:53:04;;;;;;;101.65;25.38;;;;;;;3.74;100.00;98787.16;5003214;28;20048;-79
2024/02/10 10:55:33;;;;;;;108.88;27.45;;;;;;;3.71;100.00;98782.22;4985495;23;20051;-77
2024/02/10 10:58:04;;;;;;;94.40;27.50;;;;;;;3.66;100.00;98784.56;4986880;28;20038;-77
2024/02/10 11:00:33;;;;;;;92.75;24.50;;;;;;;3.79;100.00;98785.69;4982617;28;20039;-77
2024/02/10 11:02:59;;;;;;;89.78;25.50;;;;;;;3.85;100.00;98780.75;4982089;28;20101;-76
2024/02/10 11:05:26;;;;;;;103.50;27.02;;;;;;;4.00;100.00;98773.75;4987335;28;20691;-76
2024/02/10 11:08:01;;;;;;;104.43;24.45;;;;;;;3.87;100.00;98771.66;4991993;28;20026;-76
2024/02/10 11:10:41;;;;;;;96.75;24.10;;;;;;;3.82;100.00;98773.97;4986330;28;20481;-76
2024/02/10 11:13:07;;;;;;;96.75;26.10;;;;;;;3.93;100.00;98775.44;5003254;28;20048;-76
2024/02/10 11:15:40;;;;;;;95.22;26.17;;;;;;;3.93;100.00;98764.88;5006438;28;20026;-77
2024/02/10 11:18:14;;;;;;;93.78;25.88;;;;;;;3.84;100.00;98771.16;4975408;28;20049;-76
2024/02/10 11:20:41;;;;;;;94.60;27.77;;;;;;;3.92;100.00;98771.16;5007460;28;20055;-77
2024/02/10 11:23:17;;;;;;;83.82;23.85;;;;;;;4.06;100.00;98767.81;4975566;28;20117;-77
2024/02/10 11:25:43;;;;;;;89.78;23.45;;;;;;;3.73;100.00;98752.03;4973691;28;20038;-77
2024/02/10 11:28:22;;;;;;;90.40;24.77;;;;;;;3.97;100.00;98761.72;5007575;28;20030;-76
2024/02/10 11:30:48;;;;;;;74.95;22.27;;;;;;;3.83;100.00;98759.78;5002225;28;20211;-77